sensor_id;sensor_type;location;lat;lon;timestamp;pressure;altitude;pressure_sealevel;temperature;humidity
35676;BME280;21790;42.668;23.298;2022-12-07T00:02:21;94686.97;;;12.61;49.85
35676;BME280;21790;42.668;23.298;2022-12-07T00:04:48;94681.81;;;12.54;50.25
35676;BME280;21790;42.668;23.298;2022-12-07T00:07:13;94681.72;;;12.48;50.17
35676;BME280;21790;42.668;23.298;2022-12-07T00:09:38;94679.06;;;12.54;50.08
35676;BME280;21790;42.668;23.298;2022-12-07T00:12:04;94683.44;;;12.61;49.98
35676;BME280;21790;42.668;23.298;2022-12-07T00:14:29;94671.53;;;12.69;49.74
35676;BME280;21790;42.668;23.298;2022-12-07T00:16:54;94675.06;;;12.70;49.63
35676;BME280;21790;42.668;23.298;2022-12-07T00:19:20;94667.97;;;12.69;49.60
35676;BME280;21790;42.668;23.298;2022-12-07T00:21:46;94669.13;;;12.62;49.84
35676;BME280;21790;42.668;23.298;2022-12-07T00:24:11;94675.13;;;12.61;50.00
35676;BME280;21790;42.668;23.298;2022-12-07T00:26:39;94678.19;;;12.63;49.93
35676;BME280;21790;42.668;23.298;2022-12-07T00:31:56;94681.53;;;12.52;50.32
35676;BME280;21790;42.668;23.298;2022-12-07T00:34:21;94679.09;;;12.45;50.62
35676;BME280;21790;42.668;23.298;2022-12-07T00:36:49;94671.75;;;12.42;50.65
35676;BME280;21790;42.668;23.298;2022-12-07T00:39:14;94679.44;;;12.62;49.99
35676;BME280;21790;42.668;23.298;2022-12-07T00:41:40;94667.72;;;12.81;49.35
35676;BME280;21790;42.668;23.298;2022-12-07T00:44:06;94675.53;;;12.83;49.45
35676;BME280;21790;42.668;23.298;2022-12-07T00:46:31;94679.75;;;12.78;49.79
35676;BME280;21790;42.668;23.298;2022-12-07T00:48:57;94668.75;;;12.69;49.92
35676;BME280;21790;42.668;23.298;2022-12-07T00:51:23;94675.63;;;12.59;50.27
35676;BME280;21790;42.668;23.298;2022-12-07T00:53:49;94664.03;;;12.61;50.45
35676;BME280;21790;42.668;23.298;2022-12-07T00:58:41;94664.91;;;12.67;50.17
35676;BME280;21790;42.668;23.298;2022-12-07T01:01:07;94668.91;;;12.66;50.46
35676;BME280;21790;42.668;23.298;2022-12-07T01:03:33;94673.34;;;12.72;50.38
35676;BME280;21790;42.668;23.298;2022-12-07T01:05:58;94663.78;;;12.73;50.34
35676;BME280;21790;42.668;23.298;2022-12-07T01:08:24;94661.56;;;12.63;50.59
35676;BME280;21790;42.668;23.298;2022-12-07T01:10:57;94667.97;;;12.69;50.63
35676;BME280;21790;42.668;23.298;2022-12-07T01:13:25;94662.63;;;12.65;50.43
35676;BME280;21790;42.668;23.298;2022-12-07T01:15:50;94652.56;;;12.53;50.76
35676;BME280;21790;42.668;23.298;2022-12-07T01:18:15;94654.88;;;12.69;50.31
35676;BME280;21790;42.668;23.298;2022-12-07T01:20:41;94652.25;;;12.51;50.71
35676;BME280;21790;42.668;23.298;2022-12-07T01:23:09;94646.38;;;12.58;50.49
35676;BME280;21790;42.668;23.298;2022-12-07T01:25:34;94648.47;;;12.63;50.90
35676;BME280;21790;42.668;23.298;2022-12-07T01:28:00;94646.56;;;12.54;51.09
35676;BME280;21790;42.668;23.298;2022-12-07T01:30:25;94635.53;;;12.45;51.19
35676;BME280;21790;42.668;23.298;2022-12-07T01:32:50;94644.81;;;12.42;51.22
35676;BME280;21790;42.668;23.298;2022-12-07T01:35:19;94653.59;;;12.41;51.32
35676;BME280;21790;42.668;23.298;2022-12-07T01:37:45;94644.69;;;12.37;51.38
35676;BME280;21790;42.668;23.298;2022-12-07T01:40:12;94648.41;;;12.34;51.57
35676;BME280;21790;42.668;23.298;2022-12-07T01:42:40;94646.00;;;12.27;51.84
35676;BME280;21790;42.668;23.298;2022-12-07T01:47:47;94649.75;;;12.38;51.40
35676;BME280;21790;42.668;23.298;2022-12-07T01:50:14;94653.38;;;12.30;51.59
35676;BME280;21790;42.668;23.298;2022-12-07T01:52:39;94644.84;;;12.19;51.90
35676;BME280;21790;42.668;23.298;2022-12-07T01:55:09;94650.06;;;12.16;51.88
35676;BME280;21790;42.668;23.298;2022-12-07T01:57:38;94641.94;;;12.13;51.99
35676;BME280;21790;42.668;23.298;2022-12-07T02:00:05;94635.28;;;12.20;52.11
35676;BME280;21790;42.668;23.298;2022-12-07T02:02:35;94619.59;;;12.16;51.99
35676;BME280;21790;42.668;23.298;2022-12-07T02:05:02;94625.75;;;12.21;51.85
35676;BME280;21790;42.668;23.298;2022-12-07T02:07:28;94624.78;;;12.24;51.84
35676;BME280;21790;42.668;23.298;2022-12-07T02:09:54;94629.09;;;12.25;52.05
35676;BME280;21790;42.668;23.298;2022-12-07T02:12:19;94626.34;;;12.39;51.57
35676;BME280;21790;42.668;23.298;2022-12-07T02:14:45;94629.22;;;12.45;51.08
35676;BME280;21790;42.668;23.298;2022-12-07T02:17:13;94636.09;;;12.35;51.31
35676;BME280;21790;42.668;23.298;2022-12-07T02:24:52;94618.88;;;12.31;51.65
35676;BME280;21790;42.668;23.298;2022-12-07T02:30:03;94624.31;;;12.25;52.02
35676;BME280;21790;42.668;23.298;2022-12-07T02:42:42;94622.81;;;12.39;51.44
35676;BME280;21790;42.668;23.298;2022-12-07T02:45:12;94612.13;;;12.46;51.00
35676;BME280;21790;42.668;23.298;2022-12-07T02:47:39;94616.03;;;12.40;51.20
35676;BME280;21790;42.668;23.298;2022-12-07T02:50:05;94620.69;;;12.34;51.20
35676;BME280;21790;42.668;23.298;2022-12-07T02:52:31;94612.75;;;12.27;51.27
35676;BME280;21790;42.668;23.298;2022-12-07T02:54:59;94607.88;;;12.22;51.57
35676;BME280;21790;42.668;23.298;2022-12-07T03:00:11;94598.63;;;12.39;51.31
35676;BME280;21790;42.668;23.298;2022-12-07T03:18:07;94592.06;;;12.51;50.07
35676;BME280;21790;42.668;23.298;2022-12-07T03:20:34;94593.06;;;12.25;50.88
35676;BME280;21790;42.668;23.298;2022-12-07T03:23:01;94592.31;;;12.24;50.99
35676;BME280;21790;42.668;23.298;2022-12-07T03:27:58;94588.97;;;12.20;50.95
35676;BME280;21790;42.668;23.298;2022-12-07T03:30:37;94600.94;;;12.02;51.47
35676;BME280;21790;42.668;23.298;2022-12-07T03:33:29;94606.47;;;12.02;51.50
35676;BME280;21790;42.668;23.298;2022-12-07T03:36:01;94602.06;;;11.96;51.72
35676;BME280;21790;42.668;23.298;2022-12-07T03:38:40;94599.25;;;12.05;51.57
35676;BME280;21790;42.668;23.298;2022-12-07T03:43:36;94589.44;;;11.95;51.95
35676;BME280;21790;42.668;23.298;2022-12-07T03:46:24;94595.22;;;12.06;51.70
35676;BME280;21790;42.668;23.298;2022-12-07T03:48:55;94604.00;;;12.04;51.53
35676;BME280;21790;42.668;23.298;2022-12-07T03:51:24;94597.03;;;11.94;51.86
35676;BME280;21790;42.668;23.298;2022-12-07T03:53:59;94601.91;;;11.99;51.79
35676;BME280;21790;42.668;23.298;2022-12-07T03:56:26;94598.06;;;11.97;52.03
35676;BME280;21790;42.668;23.298;2022-12-07T03:58:54;94589.44;;;11.95;51.79
35676;BME280;21790;42.668;23.298;2022-12-07T04:01:19;94588.72;;;11.94;52.05
35676;BME280;21790;42.668;23.298;2022-12-07T04:03:44;94588.75;;;11.85;52.07
35676;BME280;21790;42.668;23.298;2022-12-07T04:06:10;94588.94;;;12.05;51.61
35676;BME280;21790;42.668;23.298;2022-12-07T04:08:35;94583.19;;;12.09;51.39
35676;BME280;21790;42.668;23.298;2022-12-07T04:11:01;94581.84;;;12.04;51.65
35676;BME280;21790;42.668;23.298;2022-12-07T04:13:26;94582.34;;;11.79;52.25
35676;BME280;21790;42.668;23.298;2022-12-07T04:15:51;94580.34;;;11.80;52.25
35676;BME280;21790;42.668;23.298;2022-12-07T04:18:19;94586.00;;;11.85;52.06
35676;BME280;21790;42.668;23.298;2022-12-07T04:20:45;94583.53;;;11.87;51.99
35676;BME280;21790;42.668;23.298;2022-12-07T04:23:10;94585.63;;;11.92;51.97
35676;BME280;21790;42.668;23.298;2022-12-07T04:25:35;94585.56;;;12.01;51.71
35676;BME280;21790;42.668;23.298;2022-12-07T04:28:01;94589.28;;;11.98;51.76
35676;BME280;21790;42.668;23.298;2022-12-07T04:30:26;94590.06;;;11.99;51.80
35676;BME280;21790;42.668;23.298;2022-12-07T04:32:52;94590.94;;;11.81;51.99
35676;BME280;21790;42.668;23.298;2022-12-07T04:35:17;94589.59;;;11.77;52.18
35676;BME280;21790;42.668;23.298;2022-12-07T04:37:42;94593.00;;;11.95;51.82
35676;BME280;21790;42.668;23.298;2022-12-07T04:40:08;94596.06;;;11.97;51.69
35676;BME280;21790;42.668;23.298;2022-12-07T04:42:35;94588.22;;;11.96;51.80
35676;BME280;21790;42.668;23.298;2022-12-07T04:45:01;94603.72;;;12.02;51.59
35676;BME280;21790;42.668;23.298;2022-12-07T04:47:26;94599.41;;;12.01;51.48
35676;BME280;21790;42.668;23.298;2022-12-07T04:49:51;94597.06;;;11.85;51.87
35676;BME280;21790;42.668;23.298;2022-12-07T04:52:17;94596.03;;;11.83;51.92
35676;BME280;21790;42.668;23.298;2022-12-07T04:54:42;94601.28;;;11.71;52.33
35676;BME280;21790;42.668;23.298;2022-12-07T04:57:07;94600.22;;;11.69;52.50
35676;BME280;21790;42.668;23.298;2022-12-07T04:59:33;94599.59;;;11.74;52.37
35676;BME280;21790;42.668;23.298;2022-12-07T05:01:58;94602.72;;;11.67;52.56
35676;BME280;21790;42.668;23.298;2022-12-07T05:04:23;94598.38;;;11.75;52.36
35676;BME280;21790;42.668;23.298;2022-12-07T05:06:51;94593.75;;;11.72;52.41
35676;BME280;21790;42.668;23.298;2022-12-07T05:09:16;94601.06;;;11.84;52.05
35676;BME280;21790;42.668;23.298;2022-12-07T05:11:42;94604.59;;;11.85;51.83
35676;BME280;21790;42.668;23.298;2022-12-07T05:14:12;94602.91;;;11.87;52.09
35676;BME280;21790;42.668;23.298;2022-12-07T05:16:39;94608.50;;;11.78;52.28
35676;BME280;21790;42.668;23.298;2022-12-07T05:19:06;94607.25;;;12.03;51.80
35676;BME280;21790;42.668;23.298;2022-12-07T05:21:32;94599.19;;;11.90;52.06
35676;BME280;21790;42.668;23.298;2022-12-07T05:23:57;94603.03;;;11.93;52.20
35676;BME280;21790;42.668;23.298;2022-12-07T05:26:23;94596.72;;;11.92;52.05
35676;BME280;21790;42.668;23.298;2022-12-07T05:28:52;94603.94;;;11.90;52.01
35676;BME280;21790;42.668;23.298;2022-12-07T05:31:20;94602.25;;;11.92;51.98
35676;BME280;21790;42.668;23.298;2022-12-07T05:33:45;94603.38;;;11.86;52.13
35676;BME280;21790;42.668;23.298;2022-12-07T05:36:12;94596.94;;;11.80;52.27
35676;BME280;21790;42.668;23.298;2022-12-07T05:38:39;94589.75;;;11.73;52.38
35676;BME280;21790;42.668;23.298;2022-12-07T05:41:06;94590.00;;;11.84;52.04
35676;BME280;21790;42.668;23.298;2022-12-07T05:46:00;94589.06;;;11.87;52.24
35676;BME280;21790;42.668;23.298;2022-12-07T05:48:27;94580.69;;;11.72;52.46
35676;BME280;21790;42.668;23.298;2022-12-07T05:50:53;94576.44;;;11.86;52.21
35676;BME280;21790;42.668;23.298;2022-12-07T05:53:19;94581.63;;;11.93;51.93
35676;BME280;21790;42.668;23.298;2022-12-07T05:55:45;94578.44;;;12.09;51.50
35676;BME280;21790;42.668;23.298;2022-12-07T05:58:13;94583.53;;;11.87;51.99
35676;BME280;21790;42.668;23.298;2022-12-07T06:00:57;94589.06;;;11.87;51.97
35676;BME280;21790;42.668;23.298;2022-12-07T06:03:22;94582.88;;;11.92;51.79
35676;BME280;21790;42.668;23.298;2022-12-07T06:05:48;94584.75;;;12.10;51.13
35676;BME280;21790;42.668;23.298;2022-12-07T06:08:15;94582.66;;;12.20;50.80
35676;BME280;21790;42.668;23.298;2022-12-07T06:10:41;94579.56;;;12.18;50.95
35676;BME280;21790;42.668;23.298;2022-12-07T06:13:07;94588.59;;;12.27;50.65
35676;BME280;21790;42.668;23.298;2022-12-07T06:15:37;94584.78;;;12.39;50.52
35676;BME280;21790;42.668;23.298;2022-12-07T06:18:05;94594.53;;;12.49;50.30
35676;BME280;21790;42.668;23.298;2022-12-07T06:20:30;94595.38;;;12.41;50.37
35676;BME280;21790;42.668;23.298;2022-12-07T06:22:56;94592.50;;;12.21;51.17
35676;BME280;21790;42.668;23.298;2022-12-07T06:25:21;94593.53;;;12.23;51.16
35676;BME280;21790;42.668;23.298;2022-12-07T06:27:46;94594.88;;;12.28;51.13
35676;BME280;21790;42.668;23.298;2022-12-07T06:30:12;94600.81;;;12.21;51.37
35676;BME280;21790;42.668;23.298;2022-12-07T06:32:37;94604.81;;;12.20;51.53
35676;BME280;21790;42.668;23.298;2022-12-07T06:35:03;94603.13;;;12.37;50.78
35676;BME280;21790;42.668;23.298;2022-12-07T06:37:28;94600.38;;;12.37;50.74
35676;BME280;21790;42.668;23.298;2022-12-07T06:39:54;94602.94;;;12.55;50.37
35676;BME280;21790;42.668;23.298;2022-12-07T06:42:19;94601.03;;;12.46;50.42
35676;BME280;21790;42.668;23.298;2022-12-07T06:44:44;94609.16;;;12.50;50.46
35676;BME280;21790;42.668;23.298;2022-12-07T06:47:10;94617.00;;;12.37;50.71
35676;BME280;21790;42.668;23.298;2022-12-07T06:49:36;94607.81;;;12.45;50.63
35676;BME280;21790;42.668;23.298;2022-12-07T06:52:01;94609.94;;;12.50;50.45
35676;BME280;21790;42.668;23.298;2022-12-07T06:54:31;94607.34;;;12.62;50.42
35676;BME280;21790;42.668;23.298;2022-12-07T06:56:59;94608.41;;;12.79;49.97
35676;BME280;21790;42.668;23.298;2022-12-07T06:59:24;94610.28;;;12.29;51.02
35676;BME280;21790;42.668;23.298;2022-12-07T07:01:54;94618.13;;;12.45;51.05
35676;BME280;21790;42.668;23.298;2022-12-07T07:04:20;94611.72;;;12.39;51.13
35676;BME280;21790;42.668;23.298;2022-12-07T07:06:45;94610.94;;;12.38;50.93
35676;BME280;21790;42.668;23.298;2022-12-07T07:09:12;94607.44;;;12.52;50.83
35676;BME280;21790;42.668;23.298;2022-12-07T07:11:37;94611.25;;;12.55;50.56
35676;BME280;21790;42.668;23.298;2022-12-07T07:14:03;94605.16;;;12.51;50.73
35676;BME280;21790;42.668;23.298;2022-12-07T07:16:29;94613.19;;;12.49;50.92
35676;BME280;21790;42.668;23.298;2022-12-07T07:18:56;94607.91;;;12.51;51.07
35676;BME280;21790;42.668;23.298;2022-12-07T07:21:22;94609.38;;;12.76;50.53
35676;BME280;21790;42.668;23.298;2022-12-07T07:23:47;94607.38;;;12.91;49.49
35676;BME280;21790;42.668;23.298;2022-12-07T07:26:13;94607.56;;;13.02;49.90
35676;BME280;21790;42.668;23.298;2022-12-07T07:28:38;94610.03;;;13.00;49.75
35676;BME280;21790;42.668;23.298;2022-12-07T07:31:03;94611.31;;;13.14;49.67
35676;BME280;21790;42.668;23.298;2022-12-07T07:33:29;94607.34;;;13.20;49.49
35676;BME280;21790;42.668;23.298;2022-12-07T07:35:54;94618.28;;;13.24;49.45
35676;BME280;21790;42.668;23.298;2022-12-07T07:38:22;94616.25;;;13.39;49.35
35676;BME280;21790;42.668;23.298;2022-12-07T07:40:47;94612.34;;;13.16;49.58
35676;BME280;21790;42.668;23.298;2022-12-07T07:43:13;94620.25;;;13.38;49.07
35676;BME280;21790;42.668;23.298;2022-12-07T07:45:38;94613.22;;;13.22;49.54
35676;BME280;21790;42.668;23.298;2022-12-07T07:48:03;94610.03;;;13.29;49.55
35676;BME280;21790;42.668;23.298;2022-12-07T07:50:29;94612.41;;;13.36;49.35
35676;BME280;21790;42.668;23.298;2022-12-07T07:52:54;94615.19;;;13.36;49.16
35676;BME280;21790;42.668;23.298;2022-12-07T07:55:21;94610.31;;;13.46;48.81
35676;BME280;21790;42.668;23.298;2022-12-07T07:57:48;94612.66;;;13.53;48.77
35676;BME280;21790;42.668;23.298;2022-12-07T08:00:15;94605.78;;;13.49;48.81
35676;BME280;21790;42.668;23.298;2022-12-07T08:02:43;94610.16;;;13.55;48.48
35676;BME280;21790;42.668;23.298;2022-12-07T08:05:12;94609.00;;;13.62;48.50
35676;BME280;21790;42.668;23.298;2022-12-07T08:07:38;94609.19;;;13.58;48.88
35676;BME280;21790;42.668;23.298;2022-12-07T08:10:04;94611.38;;;13.69;48.63
35676;BME280;21790;42.668;23.298;2022-12-07T08:12:29;94605.00;;;13.63;48.38
35676;BME280;21790;42.668;23.298;2022-12-07T08:14:54;94604.63;;;13.55;48.74
35676;BME280;21790;42.668;23.298;2022-12-07T08:17:20;94604.56;;;13.70;48.42
35676;BME280;21790;42.668;23.298;2022-12-07T08:19:45;94601.06;;;13.90;48.09
35676;BME280;21790;42.668;23.298;2022-12-07T08:22:10;94611.75;;;13.97;48.07
35676;BME280;21790;42.668;23.298;2022-12-07T08:24:36;94598.81;;;14.14;47.64
35676;BME280;21790;42.668;23.298;2022-12-07T08:27:02;94600.91;;;14.19;47.46
35676;BME280;21790;42.668;23.298;2022-12-07T08:29:27;94600.28;;;14.09;47.51
35676;BME280;21790;42.668;23.298;2022-12-07T08:31:52;94609.16;;;14.13;47.42
35676;BME280;21790;42.668;23.298;2022-12-07T08:34:20;94615.16;;;14.06;47.77
35676;BME280;21790;42.668;23.298;2022-12-07T08:36:45;94614.66;;;14.08;47.61
35676;BME280;21790;42.668;23.298;2022-12-07T08:39:11;94613.22;;;14.12;47.58
35676;BME280;21790;42.668;23.298;2022-12-07T08:41:36;94605.38;;;14.11;47.47
35676;BME280;21790;42.668;23.298;2022-12-07T08:44:02;94596.75;;;14.09;47.41
35676;BME280;21790;42.668;23.298;2022-12-07T08:46:31;94598.28;;;14.10;47.31
35676;BME280;21790;42.668;23.298;2022-12-07T08:49:03;94603.34;;;13.91;47.87
35676;BME280;21790;42.668;23.298;2022-12-07T08:51:29;94597.72;;;14.06;47.59
35676;BME280;21790;42.668;23.298;2022-12-07T08:53:55;94592.38;;;14.02;47.46
35676;BME280;21790;42.668;23.298;2022-12-07T08:56:23;94595.16;;;14.22;47.07
35676;BME280;21790;42.668;23.298;2022-12-07T08:58:49;94585.09;;;14.05;47.43
35676;BME280;21790;42.668;23.298;2022-12-07T09:01:14;94587.47;;;13.57;48.07
35676;BME280;21790;42.668;23.298;2022-12-07T09:03:39;94589.28;;;13.60;48.16
35676;BME280;21790;42.668;23.298;2022-12-07T09:06:05;94578.69;;;13.78;47.64
35676;BME280;21790;42.668;23.298;2022-12-07T09:08:32;94579.31;;;13.88;47.82
35676;BME280;21790;42.668;23.298;2022-12-07T09:10:58;94573.34;;;13.95;47.49
35676;BME280;21790;42.668;23.298;2022-12-07T09:13:23;94579.59;;;13.90;47.60
35676;BME280;21790;42.668;23.298;2022-12-07T09:15:48;94571.66;;;14.03;47.39
35676;BME280;21790;42.668;23.298;2022-12-07T09:18:14;94567.22;;;14.11;47.22
35676;BME280;21790;42.668;23.298;2022-12-07T09:20:39;94580.06;;;14.09;47.14
35676;BME280;21790;42.668;23.298;2022-12-07T09:23:05;94566.66;;;14.07;47.11
35676;BME280;21790;42.668;23.298;2022-12-07T09:25:31;94571.53;;;13.92;47.52
35676;BME280;21790;42.668;23.298;2022-12-07T09:27:57;94574.94;;;14.02;47.43
35676;BME280;21790;42.668;23.298;2022-12-07T09:30:22;94564.94;;;14.10;47.26
35676;BME280;21790;42.668;23.298;2022-12-07T09:32:48;94557.63;;;14.33;46.99
35676;BME280;21790;42.668;23.298;2022-12-07T09:35:13;94550.28;;;14.35;46.98
35676;BME280;21790;42.668;23.298;2022-12-07T09:37:38;94547.41;;;14.44;46.56
35676;BME280;21790;42.668;23.298;2022-12-07T09:40:04;94551.97;;;14.47;46.67
35676;BME280;21790;42.668;23.298;2022-12-07T09:42:34;94553.78;;;14.50;46.70
35676;BME280;21790;42.668;23.298;2022-12-07T09:45:01;94538.06;;;14.47;46.51
35676;BME280;21790;42.668;23.298;2022-12-07T09:47:29;94539.38;;;14.52;46.25
35676;BME280;21790;42.668;23.298;2022-12-07T09:49:55;94536.03;;;14.74;46.05
35676;BME280;21790;42.668;23.298;2022-12-07T09:52:26;94542.88;;;14.73;46.08
35676;BME280;21790;42.668;23.298;2022-12-07T09:54:52;94535.94;;;14.62;46.42
35676;BME280;21790;42.668;23.298;2022-12-07T09:57:27;94526.31;;;14.89;46.08
35676;BME280;21790;42.668;23.298;2022-12-07T09:59:54;94527.69;;;14.74;45.98
35676;BME280;21790;42.668;23.298;2022-12-07T10:02:37;94526.50;;;14.80;45.98
35676;BME280;21790;42.668;23.298;2022-12-07T10:05:06;94537.94;;;14.88;45.99
35676;BME280;21790;42.668;23.298;2022-12-07T10:07:32;94534.44;;;14.93;45.68
35676;BME280;21790;42.668;23.298;2022-12-07T10:09:57;94523.56;;;14.95;45.69
35676;BME280;21790;42.668;23.298;2022-12-07T10:12:22;94526.66;;;15.02;45.49
35676;BME280;21790;42.668;23.298;2022-12-07T10:14:55;94512.22;;;14.98;45.56
35676;BME280;21790;42.668;23.298;2022-12-07T10:17:40;94510.50;;;15.06;45.42
35676;BME280;21790;42.668;23.298;2022-12-07T10:22:37;94507.72;;;15.06;44.94
35676;BME280;21790;42.668;23.298;2022-12-07T10:25:17;94505.91;;;14.98;45.41
35676;BME280;21790;42.668;23.298;2022-12-07T10:27:43;94501.91;;;15.04;45.37
35676;BME280;21790;42.668;23.298;2022-12-07T10:30:12;94494.41;;;15.16;45.09
35676;BME280;21790;42.668;23.298;2022-12-07T10:32:41;94489.28;;;15.09;45.08
35676;BME280;21790;42.668;23.298;2022-12-07T10:35:18;94477.28;;;14.60;45.93
35676;BME280;21790;42.668;23.298;2022-12-07T10:37:43;94486.88;;;14.34;46.83
35676;BME280;21790;42.668;23.298;2022-12-07T10:43:05;94469.19;;;14.94;45.69
35676;BME280;21790;42.668;23.298;2022-12-07T10:45:32;94470.16;;;14.91;45.62
35676;BME280;21790;42.668;23.298;2022-12-07T10:50:36;94472.56;;;14.72;46.32
35676;BME280;21790;42.668;23.298;2022-12-07T10:58:34;94451.47;;;15.39;44.66
35676;BME280;21790;42.668;23.298;2022-12-07T11:01:13;94445.91;;;15.39;44.79
35676;BME280;21790;42.668;23.298;2022-12-07T11:11:50;94445.31;;;15.67;44.71
35676;BME280;21790;42.668;23.298;2022-12-07T11:14:31;94432.66;;;15.77;44.39
35676;BME280;21790;42.668;23.298;2022-12-07T11:17:01;94439.25;;;15.74;44.35
35676;BME280;21790;42.668;23.298;2022-12-07T11:22:09;94427.16;;;15.94;43.62
35676;BME280;21790;42.668;23.298;2022-12-07T11:24:57;94429.81;;;15.60;44.53
35676;BME280;21790;42.668;23.298;2022-12-07T11:27:32;94435.41;;;15.66;44.50
35676;BME280;21790;42.668;23.298;2022-12-07T11:30:03;94419.72;;;15.63;44.31
35676;BME280;21790;42.668;23.298;2022-12-07T11:37:49;94396.94;;;15.59;44.47
35676;BME280;21790;42.668;23.298;2022-12-07T11:43:28;94403.38;;;16.04;44.53
35676;BME280;21790;42.668;23.298;2022-12-07T11:46:33;94400.38;;;16.29;43.94
35676;BME280;21790;42.668;23.298;2022-12-07T11:48:45;94399.84;;;16.37;43.90
35676;BME280;21790;42.668;23.298;2022-12-07T11:51:20;94386.16;;;16.50;43.67
35676;BME280;21790;42.668;23.298;2022-12-07T11:54:02;94391.25;;;16.46;43.31
35676;BME280;21790;42.668;23.298;2022-12-07T11:56:33;94381.88;;;16.71;42.45
35676;BME280;21790;42.668;23.298;2022-12-07T12:02:01;94380.09;;;16.62;43.26
35676;BME280;21790;42.668;23.298;2022-12-07T12:07:16;94369.44;;;16.61;43.03
35676;BME280;21790;42.668;23.298;2022-12-07T12:17:43;94356.25;;;16.67;42.90
35676;BME280;21790;42.668;23.298;2022-12-07T12:22:53;94326.34;;;16.62;42.61
35676;BME280;21790;42.668;23.298;2022-12-07T12:25:24;94354.97;;;16.79;42.76
35676;BME280;21790;42.668;23.298;2022-12-07T12:27:52;94353.91;;;16.93;41.45
35676;BME280;21790;42.668;23.298;2022-12-07T12:33:03;94337.69;;;16.81;41.73
35676;BME280;21790;42.668;23.298;2022-12-07T12:38:27;94331.84;;;16.95;42.13
35676;BME280;21790;42.668;23.298;2022-12-07T12:40:55;94325.72;;;17.02;42.03
35676;BME280;21790;42.668;23.298;2022-12-07T12:43:40;94325.81;;;17.43;41.37
35676;BME280;21790;42.668;23.298;2022-12-07T12:54:27;94337.94;;;16.94;42.46
35676;BME280;21790;42.668;23.298;2022-12-07T12:59:30;94321.16;;;16.99;41.61
35676;BME280;21790;42.668;23.298;2022-12-07T13:10:42;94341.41;;;17.74;40.41
35676;BME280;21790;42.668;23.298;2022-12-07T13:15:45;94334.34;;;17.68;40.10
35676;BME280;21790;42.668;23.298;2022-12-07T13:23:24;94330.56;;;17.65;40.71
35676;BME280;21790;42.668;23.298;2022-12-07T13:26:12;94335.41;;;17.53;40.73
35676;BME280;21790;42.668;23.298;2022-12-07T13:28:45;94324.22;;;17.59;40.65
35676;BME280;21790;42.668;23.298;2022-12-07T13:33:48;94335.13;;;17.57;40.09
35676;BME280;21790;42.668;23.298;2022-12-07T13:36:33;94331.97;;;17.83;39.77
35676;BME280;21790;42.668;23.298;2022-12-07T13:39:17;94325.28;;;17.50;40.16
35676;BME280;21790;42.668;23.298;2022-12-07T13:41:44;94314.72;;;17.27;40.30
35676;BME280;21790;42.668;23.298;2022-12-07T13:44:15;94318.13;;;17.55;40.31
35676;BME280;21790;42.668;23.298;2022-12-07T13:49:31;94315.81;;;17.59;40.03
35676;BME280;21790;42.668;23.298;2022-12-07T13:52:18;94307.72;;;17.61;40.02
35676;BME280;21790;42.668;23.298;2022-12-07T13:54:55;94306.91;;;17.72;39.98
35676;BME280;21790;42.668;23.298;2022-12-07T13:57:22;94308.53;;;17.45;40.43
35676;BME280;21790;42.668;23.298;2022-12-07T13:59:51;94311.34;;;17.45;41.12
35676;BME280;21790;42.668;23.298;2022-12-07T14:02:28;94311.25;;;17.67;40.52
35676;BME280;21790;42.668;23.298;2022-12-07T14:05:14;94291.09;;;17.33;40.92
35676;BME280;21790;42.668;23.298;2022-12-07T14:16:01;94327.16;;;17.26;41.38
35676;BME280;21790;42.668;23.298;2022-12-07T14:18:30;94327.09;;;17.37;41.17
35676;BME280;21790;42.668;23.298;2022-12-07T14:21:16;94326.03;;;17.51;40.80
35676;BME280;21790;42.668;23.298;2022-12-07T14:23:45;94327.66;;;17.24;41.32
35676;BME280;21790;42.668;23.298;2022-12-07T14:26:15;94324.91;;;17.13;41.62
35676;BME280;21790;42.668;23.298;2022-12-07T14:28:42;94332.59;;;16.96;41.95
35676;BME280;21790;42.668;23.298;2022-12-07T14:31:12;94334.88;;;16.97;42.09
35676;BME280;21790;42.668;23.298;2022-12-07T14:33:39;94322.91;;;17.08;41.62
35676;BME280;21790;42.668;23.298;2022-12-07T14:36:05;94329.28;;;16.97;41.71
35676;BME280;21790;42.668;23.298;2022-12-07T14:38:33;94325.22;;;16.98;41.63
35676;BME280;21790;42.668;23.298;2022-12-07T14:41:00;94325.50;;;16.95;41.72
35676;BME280;21790;42.668;23.298;2022-12-07T14:43:44;94322.72;;;16.89;42.00
35676;BME280;21790;42.668;23.298;2022-12-07T14:46:09;94326.03;;;16.82;42.14
35676;BME280;21790;42.668;23.298;2022-12-07T14:48:35;94329.09;;;16.84;42.11
35676;BME280;21790;42.668;23.298;2022-12-07T14:51:04;94320.94;;;16.92;41.94
35676;BME280;21790;42.668;23.298;2022-12-07T14:53:36;94315.66;;;16.71;42.24
35676;BME280;21790;42.668;23.298;2022-12-07T14:56:03;94313.66;;;16.66;42.16
35676;BME280;21790;42.668;23.298;2022-12-07T14:58:30;94330.41;;;16.61;42.43
35676;BME280;21790;42.668;23.298;2022-12-07T15:00:56;94332.41;;;16.55;42.71
35676;BME280;21790;42.668;23.298;2022-12-07T15:03:21;94331.91;;;16.56;42.48
35676;BME280;21790;42.668;23.298;2022-12-07T15:05:47;94337.22;;;16.54;42.49
35676;BME280;21790;42.668;23.298;2022-12-07T15:08:13;94332.16;;;16.47;42.78
35676;BME280;21790;42.668;23.298;2022-12-07T15:10:38;94339.25;;;16.48;43.00
35676;BME280;21790;42.668;23.298;2022-12-07T15:13:06;94337.75;;;16.36;43.11
35676;BME280;21790;42.668;23.298;2022-12-07T15:15:52;94345.59;;;16.32;43.48
35676;BME280;21790;42.668;23.298;2022-12-07T15:18:19;94346.84;;;16.37;43.51
35676;BME280;21790;42.668;23.298;2022-12-07T15:20:45;94352.69;;;16.27;43.54
35676;BME280;21790;42.668;23.298;2022-12-07T15:23:11;94312.91;;;15.99;43.81